Latest Weather Observations for Brisbane Airport

IDQ60801

Issued at 12:02 am EST Friday 24 March 2017 (issued every 30 minutes, with the page automatically refreshed every 10 minutes)

About weather observations | Map of weather stations | Latest weather observations for QLD | Other Formats
Station Details ID: 040842 Name: BRISBANE AERO Lat: -27.39 Lon: 153.13 Height: 4.51 m
Data from the previous 72 hours. | See also: Recent months at Brisbane Airport
Date/Time
EST
Temp
°C
App
Temp
°C
Dew
Point
°C
Rel
Hum
%
Delta-T
°C
Wind Press
QNH
hPa
Press
MSL
hPa
Rain since
9am
mm
Dir  Spd
km/h
Gust
km/h
Spd
kts
Gust
kts
23/11:30pm 25.1 29.2 23.2 89 1.3 E 7 9 4 5 1015.3 1015.3 0.0
23/11:00pm 25.2 29.4 23.4 90 1.2 ENE 7 9 4 5 1015.6 1015.6 0.0
23/10:30pm 25.3 29.1 23.4 89 1.3 NE 9 11 5 6 1015.7 1015.7 0.0
23/10:00pm 25.5 29.6 23.0 86 1.7 ENE 6 9 3 5 1016.1 1016.1 0.0
23/09:30pm 25.5 28.7 23.1 86 1.6 NE 11 15 6 8 1015.9 1015.9 0.0
23/09:00pm 25.4 28.7 23.2 88 1.5 NE 11 13 6 7 1015.9 1015.9 0.0
23/08:30pm 25.7 28.3 22.6 83 2.1 NE 13 17 7 9 1016.0 1016.0 0.0
23/08:00pm 25.8 28.5 22.2 80 2.4 ENE 11 17 6 9 1015.8 1015.8 0.0
23/07:30pm 25.7 28.0 22.1 80 2.4 ENE 13 17 7 9 1015.6 1015.6 0.0
23/07:00pm 25.8 28.3 22.5 82 2.2 ENE 13 17 7 9 1015.3 1015.3 0.0
23/06:30pm 25.9 27.9 21.5 76 2.9 ENE 13 15 7 8 1014.9 1014.9 0.0
23/06:00pm 26.0 28.5 21.8 77 2.8 ENE 11 15 6 8 1014.7 1014.7 0.0
23/05:30pm 26.1 28.4 22.1 78 2.7 NE 13 17 7 9 1014.6 1014.6 0.0
23/05:00pm 26.4 28.1 21.6 75 3.2 NE 15 19 8 10 1014.3 1014.3 0.0
23/04:30pm 26.5 27.5 21.7 75 3.2 NNE 19 24 10 13 1014.2 1014.2 0.0
23/04:00pm 26.5 28.2 22.3 78 2.8 NNE 17 26 9 14 1014.0 1014.0 0.0
23/03:30pm 27.0 28.5 21.3 71 3.8 NE 15 20 8 11 1013.9 1013.9 0.0
23/03:00pm 27.0 29.2 21.8 73 3.5 NNE 13 15 7 8 1013.9 1013.9 0.0
23/02:30pm 26.9 28.7 21.2 71 3.8 NNE 13 15 7 8 1013.9 1013.9 0.0
23/02:00pm 26.8 28.6 21.1 71 3.8 NNE 13 15 7 8 1014.0 1014.0 0.0
23/01:30pm 27.0 29.0 21.6 72 3.6 NNE 13 17 7 9 1014.2 1014.2 0.0
23/01:00pm 27.1 28.7 20.7 68 4.2 N 13 17 7 9 1014.8 1014.8 0.0
23/12:30pm 27.5 29.3 21.2 68 4.2 N 13 19 7 10 1015.3 1015.3 0.0
23/12:00pm 27.7 29.8 21.7 70 4.0 N 13 19 7 10 1015.6 1015.6 0.0
23/11:30am 27.0 28.8 21.9 73 3.4 N 15 26 8 14 1016.0 1016.0 0.0
23/11:00am 26.6 28.5 22.1 76 3.0 N 15 19 8 10 1016.2 1016.2 0.0
23/10:30am 26.0 28.5 22.4 80 2.4 N 13 24 7 13 1016.4 1016.4 0.0
23/10:00am 25.8 28.3 22.4 81 2.3 N 13 22 7 12 1016.5 1016.5 0.0
23/09:30am 25.9 29.3 23.4 86 1.7 N 11 20 6 11 1016.5 1016.5 0.0
23/09:00am 25.9 29.5 23.1 84 1.9 N 9 11 5 6 1016.5 1016.5 3.4
23/08:30am 25.2 30.6 23.3 89 1.3 CALM 0 0 0 0 1016.3 1016.3 3.4
23/08:00am 24.6 28.7 23.0 91 1.1 WSW 6 7 3 4 1016.0 1016.0 3.4
23/07:30am 24.0 29.2 22.8 93 0.8 CALM 0 0 0 0 1015.5 1015.5 3.4
23/07:00am 23.2 28.2 22.5 96 0.5 CALM 0 0 0 0 1015.3 1015.3 3.4
23/06:30am 22.8 27.4 22.4 98 0.3 S 2 7 1 4 1015.2 1015.2 3.4
23/06:00am 22.8 25.9 22.2 96 0.4 SSW 9 11 5 6 1014.9 1014.9 3.4
23/05:30am 22.7 25.8 22.2 97 0.3 SSW 9 11 5 6 1014.8 1014.8 3.4
23/05:00am 22.8 25.9 22.2 96 0.4 SSW 9 11 5 6 1014.5 1014.5 3.4
23/04:30am 22.7 25.8 22.2 97 0.3 SSW 9 11 5 6 1014.3 1014.3 3.4
23/04:00am 22.8 25.9 22.2 96 0.4 SW 9 11 5 6 1014.0 1014.0 3.4
23/03:30am 22.9 26.5 22.3 96 0.4 S 7 11 4 6 1013.8 1013.8 3.2
23/03:00am 23.0 25.7 22.2 95 0.5 SSW 11 15 6 8 1013.9 1013.9 3.2
23/02:30am 23.0 25.5 22.4 96 0.4 SSW 13 15 7 8 1014.1 1014.1 3.2
23/02:00am 23.1 26.4 22.5 96 0.4 SSW 9 9 5 5 1014.2 1014.2 3.2
23/01:30am 23.2 26.5 22.5 96 0.5 SSW 9 13 5 7 1014.3 1014.3 3.2
23/01:00am 23.3 26.5 22.4 95 0.6 SSW 9 11 5 6 1014.7 1014.7 3.2
23/12:30am 23.1 26.0 22.4 96 0.5 SW 11 11 6 6 1015.0 1015.0 3.2
23/12:00am 23.1 26.7 22.4 96 0.5 SW 7 9 4 5 1015.2 1015.2 3.2
 
Date/Time
EST
Temp
°C
App
Temp
°C
Dew
Point
°C
Rel
Hum
%
Delta-T
°C
Wind Press
QNH
hPa
Press
MSL
hPa
Rain since
9am
mm
Dir  Spd
km/h
Gust
km/h
Spd
kts
Gust
kts
22/11:30pm 23.4 27.1 22.5 95 0.6 S 7 9 4 5 1015.3 1015.3 3.2
22/11:00pm 23.5 26.8 22.5 94 0.7 SSW 9 13 5 7 1015.4 1015.4 3.2
22/10:30pm 23.5 27.2 22.5 94 0.7 S 7 9 4 5 1015.5 1015.5 3.2
22/10:00pm 23.4 27.2 22.7 96 0.5 S 7 9 4 5 1015.7 1015.7 3.2
22/09:30pm 23.5 27.5 22.8 96 0.5 S 6 7 3 4 1015.7 1015.7 3.2
22/09:00pm 23.6 27.4 22.7 95 0.6 S 7 9 4 5 1015.6 1015.6 3.2
22/08:30pm 23.7 27.5 22.7 94 0.7 S 7 9 4 5 1015.4 1015.4 3.2
22/08:00pm 23.7 27.6 23.0 96 0.5 SSE 7 7 4 4 1015.2 1015.2 3.2
22/07:30pm 23.7 27.8 23.0 96 0.5 SSE 6 7 3 4 1014.8 1014.8 3.2
22/07:00pm 23.8 29.0 22.9 95 0.6 CALM 0 7 0 4 1014.8 1014.8 3.2
22/06:30pm 24.0 29.2 22.8 93 0.8 CALM 0 0 0 0 1014.6 1014.6 3.2
22/06:00pm 23.9 28.2 22.6 92 0.9 E 4 7 2 4 1014.3 1014.3 3.2
22/05:30pm 24.0 29.1 22.7 92 0.9 CALM 0 0 0 0 1014.1 1014.1 3.2
22/05:00pm 23.8 28.9 22.6 93 0.8 CALM 0 6 0 3 1013.9 1013.9 3.2
22/04:49pm 23.8 28.6 22.8 94 0.7 ESE 2 6 1 3 1013.9 1013.9 3.0
22/04:30pm 23.4 26.3 22.4 94 0.7 ENE 11 17 6 9 1014.0 1014.0 2.0
22/04:21pm 24.2 26.8 22.7 91 1.0 ENE 13 19 7 10 1014.0 1014.0 1.2
22/04:00pm 24.7 27.7 22.6 88 1.4 WNW 11 19 6 10 1013.8 1013.8 1.2
22/03:30pm 25.0 27.1 23.1 89 1.3 WNW 17 24 9 13 1013.9 1013.9 1.0
22/03:00pm 26.4 30.3 22.9 81 2.4 N 7 11 4 6 1013.6 1013.6 1.0
22/02:30pm 26.6 29.7 22.8 79 2.6 N 11 13 6 7 1013.7 1013.7 1.0
22/02:00pm 26.5 29.8 22.5 78 2.7 N 9 13 5 7 1013.9 1013.9 1.0
22/01:30pm 26.3 29.6 22.6 80 2.5 NE 9 11 5 6 1014.1 1014.1 1.0
22/01:00pm 26.2 28.8 22.6 80 2.4 NNE 13 15 7 8 1014.4 1014.4 1.0
22/12:30pm 26.2 28.8 21.9 77 2.9 NNE 11 15 6 8 1014.8 1014.8 1.0
22/12:00pm 26.2 29.4 21.7 76 3.0 NE 7 11 4 6 1015.0 1015.0 1.0
22/11:30am 25.6 29.4 22.8 84 1.9 NE 7 9 4 5 1015.3 1015.3 1.0
22/11:00am 24.6 28.2 23.0 91 1.1 NE 9 15 5 8 1015.5 1015.5 1.0
22/10:30am 26.6 30.1 22.8 79 2.6 NNE 9 13 5 7 1015.6 1015.6 0.0
22/10:00am 26.3 30.2 22.9 81 2.3 N 7 11 4 6 1015.8 1015.8 0.0
22/09:30am 26.2 29.8 23.1 83 2.1 N 9 13 5 7 1016.1 1016.1 0.0
22/09:00am 25.4 29.3 23.0 86 1.6 W 7 26 4 14 1016.1 1016.1 9.4
22/08:30am 23.6 27.1 23.5 99 0.1 WSW 11 13 6 7 1016.2 1016.2 9.4
22/08:00am 24.5 27.6 22.9 91 1.1 WSW 11 15 6 8 1016.1 1016.1 9.4
22/07:30am 23.6 27.0 22.7 95 0.6 WSW 9 15 5 8 1016.0 1016.0 9.4
22/07:00am 23.1 26.3 22.4 96 0.5 SW 9 11 5 6 1015.8 1015.8 9.4
22/06:46am 23.0 25.4 22.2 95 0.5 WSW 13 17 7 9 1015.7 1015.7 9.4
22/06:30am 22.9 25.2 22.0 95 0.6 W 13 20 7 11 1015.6 1015.6 9.0
22/06:14am 23.9 27.0 22.1 90 1.2 NW 9 15 5 8 1015.4 1015.4 6.8
22/06:00am 23.8 27.7 22.5 92 0.9 WSW 6 9 3 5 1015.3 1015.3 6.8
22/05:30am 24.9 27.4 21.7 82 2.1 ENE 11 13 6 7 1014.9 1014.9 6.8
22/05:00am 25.1 27.0 22.1 83 2.0 ENE 15 24 8 13 1014.7 1014.7 6.8
22/04:30am 24.9 27.6 22.2 85 1.8 ENE 11 17 6 9 1014.4 1014.4 6.8
22/04:00am 24.9 27.4 22.4 86 1.7 ENE 13 17 7 9 1014.4 1014.4 6.8
22/03:30am 24.8 26.8 22.3 86 1.7 ENE 15 19 8 10 1014.4 1014.4 6.8
22/03:00am 24.9 27.5 22.7 87 1.5 ENE 13 17 7 9 1014.3 1014.3 6.8
22/02:30am 25.0 27.4 22.3 85 1.8 ENE 13 15 7 8 1014.4 1014.4 6.8
22/02:00am 24.9 27.9 21.9 83 2.0 ENE 9 13 5 7 1014.7 1014.7 6.8
22/01:30am 24.9 27.0 22.4 86 1.7 NE 15 20 8 11 1014.8 1014.8 6.8
22/01:00am 25.1 27.4 22.7 86 1.6 ENE 15 24 8 13 1015.0 1015.0 6.8
22/12:30am 25.2 28.7 22.8 86 1.6 ENE 9 13 5 7 1015.3 1015.3 6.8
22/12:00am 25.2 27.8 22.7 86 1.7 ENE 13 15 7 8 1015.4 1015.4 6.8
 
Date/Time
EST
Temp
°C
App
Temp
°C
Dew
Point
°C
Rel
Hum
%
Delta-T
°C
Wind Press
QNH
hPa
Press
MSL
hPa
Rain since
9am
mm
Dir  Spd
km/h
Gust
km/h
Spd
kts
Gust
kts
21/11:30pm 25.2 28.1 23.1 88 1.4 ENE 13 17 7 9 1015.6 1015.6 6.8
21/11:00pm 25.4 26.7 22.4 83 2.0 NE 19 28 10 15 1015.7 1015.7 6.8
21/10:30pm 24.8 28.7 22.9 89 1.3 E 7 9 4 5 1015.8 1015.8 6.8
21/10:00pm 24.9 28.7 22.8 88 1.4 E 7 7 4 4 1015.9 1015.9 6.8
21/09:30pm 24.8 27.6 22.3 86 1.7 ENE 11 15 6 8 1016.1 1016.1 6.8
21/09:00pm 24.6 27.2 22.7 89 1.3 ENE 13 19 7 10 1016.1 1016.1 6.8
21/08:30pm 24.6 27.7 22.8 90 1.2 E 11 17 6 9 1016.0 1016.0 6.8
21/08:00pm 24.0 27.7 22.5 91 1.0 ESE 7 11 4 6 1015.7 1015.7 6.8
21/07:30pm 23.7 25.7 21.6 88 1.4 ESE 13 20 7 11 1015.5 1015.5 3.0
21/07:00pm 26.0 27.9 22.0 78 2.7 ENE 15 19 8 10 1015.0 1015.0 2.0
21/06:30pm 26.1 29.0 21.7 77 2.9 ENE 9 13 5 7 1014.7 1014.7 2.0
21/06:00pm 26.1 28.6 21.7 77 2.9 ENE 11 15 6 8 1014.4 1014.4 2.0
21/05:30pm 26.4 29.1 22.1 77 2.9 ENE 11 15 6 8 1014.4 1014.4 2.0
21/05:00pm 26.8 29.1 21.4 72 3.6 ENE 11 15 6 8 1014.4 1014.4 2.0
21/04:30pm 26.3 29.5 22.3 78 2.7 ENE 9 11 5 6 1014.5 1014.5 2.0
21/04:00pm 26.1 29.7 22.4 80 2.5 ENE 7 9 4 5 1014.7 1014.7 2.0
21/03:30pm 24.9 27.7 21.6 82 2.2 NNE 9 19 5 10 1014.9 1014.9 2.0
21/03:00pm 27.4 29.4 22.2 73 3.5 NE 15 22 8 12 1014.9 1014.9 2.0
21/02:37pm 26.8 29.2 22.3 76 3.0 NE 13 17 7 9 1014.9 1014.9 2.0
21/02:30pm 26.3 29.3 22.6 80 2.5 NE 11 15 6 8 1014.9 1014.9 2.0
21/02:00pm 27.5 28.3 21.3 69 4.1 ENE 19 26 10 14 1015.1 1015.1 0.0
21/01:30pm 27.9 28.9 22.1 70 3.9 ENE 20 30 11 16 1015.4 1015.4 0.0
21/01:00pm 27.7 28.8 22.0 71 3.8 ENE 19 26 10 14 1015.6 1015.6 0.0
21/12:30pm 27.6 28.5 22.7 74 3.3 NE 22 28 12 15 1015.8 1015.8 0.0
21/12:00pm 27.3 28.7 21.8 72 3.7 ENE 17 24 9 13 1016.1 1016.1 0.0
21/11:30am 27.4 28.4 21.7 71 3.8 ENE 19 26 10 14 1016.4 1016.4 0.0
21/11:00am 27.4 28.2 21.4 70 4.0 ENE 19 28 10 15 1016.6 1016.6 0.0
21/10:30am 27.0 28.4 21.9 73 3.4 ENE 17 26 9 14 1016.7 1016.7 0.0
21/10:00am 27.0 28.1 21.9 73 3.4 ENE 19 28 10 15 1016.9 1016.9 0.0
21/09:30am 27.2 28.5 22.3 74 3.3 ENE 19 26 10 14 1016.9 1016.9 0.0
21/09:00am 26.4 28.3 22.1 77 2.9 ENE 15 26 8 14 1016.8 1016.8 46.4
21/08:30am 26.1 27.8 21.7 77 2.9 ENE 15 22 8 12 1016.7 1016.7 46.4
21/08:00am 26.0 27.9 22.0 78 2.7 ENE 15 24 8 13 1016.5 1016.5 46.4
21/07:30am 25.7 27.6 22.0 80 2.5 ENE 15 19 8 10 1016.2 1016.2 46.4
21/07:00am 25.3 27.3 22.2 83 2.1 ENE 15 20 8 11 1015.9 1015.9 46.4
21/06:30am 24.9 27.3 22.2 85 1.8 ENE 13 17 7 9 1015.9 1015.9 46.4
21/06:00am 24.3 26.3 22.2 88 1.4 NE 15 19 8 10 1015.6 1015.6 46.4
21/05:51am 23.8 26.1 22.1 90 1.1 NE 13 19 7 10 1015.5 1015.5 46.4
21/05:30am 23.4 24.7 21.6 90 1.2 NE 17 28 9 15 1015.4 1015.4 46.2
21/05:00am 23.4 25.8 22.2 93 0.8 E 13 20 7 11 1015.5 1015.5 46.0
21/04:30am 23.1 26.0 22.4 96 0.5 ESE 11 15 6 8 1015.3 1015.3 45.8
21/04:00am 23.0 25.5 22.4 96 0.4 E 13 19 7 10 1015.1 1015.1 44.6
21/03:53am 23.1 25.5 22.2 95 0.6 ENE 13 17 7 9 1015.0 1015.0 44.2
21/03:30am 23.2 26.1 22.5 96 0.5 E 11 17 6 9 1015.1 1015.1 43.4
21/03:00am 23.1 25.8 22.2 95 0.6 ENE 11 15 6 8 1015.0 1015.0 43.4
21/02:30am 23.5 25.1 22.1 92 0.9 ENE 17 26 9 14 1015.3 1015.3 42.8
21/02:00am 23.9 26.4 22.4 91 1.0 NE 13 17 7 9 1015.2 1015.2 42.8
21/01:51am 23.9 25.6 22.3 91 1.1 NE 17 22 9 12 1015.2 1015.2 42.8
21/01:30am 23.6 26.2 22.7 95 0.6 NE 13 20 7 11 1015.5 1015.5 42.8
21/01:00am 23.4 24.8 22.5 95 0.6 NE 19 26 10 14 1015.6 1015.6 42.8
21/12:50am 23.3 24.6 22.4 95 0.6 NE 19 26 10 14 1015.6 1015.6 42.6
21/12:30am 23.5 25.1 22.8 96 0.5 NE 19 28 10 15 1015.8 1015.8 41.8

Other Formats:

Comma delimited format used in spreadsheet applications
http://www.bom.gov.au/fwo/IDQ60801/IDQ60801.94578.axf

JavaScript Object Notation format (JSON) in row-major order
http://www.bom.gov.au/fwo/IDQ60801/IDQ60801.94578.json